sensor_id;sensor_type;location;lat;lon;timestamp;temperature;humidity
49765;DHT22;35657;51.204;-4.130;2023-03-30T00:00:54;11.20;99.90
49765;DHT22;35657;51.204;-4.130;2023-03-30T00:03:21;11.30;99.90
49765;DHT22;35657;51.204;-4.130;2023-03-30T00:05:48;11.30;99.90
49765;DHT22;35657;51.204;-4.130;2023-03-30T00:08:17;11.30;99.90
49765;DHT22;35657;51.204;-4.130;2023-03-30T00:10:43;11.30;99.90
49765;DHT22;35657;51.204;-4.130;2023-03-30T00:13:10;11.30;99.90
49765;DHT22;35657;51.204;-4.130;2023-03-30T00:15:36;11.20;99.90
49765;DHT22;35657;51.204;-4.130;2023-03-30T00:18:03;11.20;99.90
49765;DHT22;35657;51.204;-4.130;2023-03-30T00:20:29;11.10;99.90
49765;DHT22;35657;51.204;-4.130;2023-03-30T00:22:57;11.10;99.90
49765;DHT22;35657;51.204;-4.130;2023-03-30T00:25:23;11.10;99.90
49765;DHT22;35657;51.204;-4.130;2023-03-30T00:27:49;11.10;99.90
49765;DHT22;35657;51.204;-4.130;2023-03-30T00:30:16;11.10;99.90
49765;DHT22;35657;51.204;-4.130;2023-03-30T00:32:43;11.10;99.90
49765;DHT22;35657;51.204;-4.130;2023-03-30T00:35:10;11.10;99.90
49765;DHT22;35657;51.204;-4.130;2023-03-30T00:37:37;11.10;99.90
49765;DHT22;35657;51.204;-4.130;2023-03-30T00:40:05;11.10;99.90
49765;DHT22;35657;51.204;-4.130;2023-03-30T00:42:34;11.10;99.90
49765;DHT22;35657;51.204;-4.130;2023-03-30T00:45:26;11.10;99.90
49765;DHT22;35657;51.204;-4.130;2023-03-30T00:47:57;11.10;99.90
49765;DHT22;35657;51.204;-4.130;2023-03-30T00:50:28;11.10;99.90
49765;DHT22;35657;51.204;-4.130;2023-03-30T00:53:02;11.20;99.90
49765;DHT22;35657;51.204;-4.130;2023-03-30T00:55:31;11.20;99.90
49765;DHT22;35657;51.204;-4.130;2023-03-30T00:57:58;11.20;99.90
49765;DHT22;35657;51.204;-4.130;2023-03-30T01:00:24;11.20;99.90
49765;DHT22;35657;51.204;-4.130;2023-03-30T01:02:55;11.20;99.90
49765;DHT22;35657;51.204;-4.130;2023-03-30T01:05:23;11.20;99.90
49765;DHT22;35657;51.204;-4.130;2023-03-30T01:07:50;11.20;99.90
49765;DHT22;35657;51.204;-4.130;2023-03-30T01:10:16;11.20;99.90
49765;DHT22;35657;51.204;-4.130;2023-03-30T01:12:43;11.20;99.90
49765;DHT22;35657;51.204;-4.130;2023-03-30T01:15:09;11.20;99.90
49765;DHT22;35657;51.204;-4.130;2023-03-30T01:18:00;11.20;99.90
49765;DHT22;35657;51.204;-4.130;2023-03-30T01:26:50;11.30;99.90
49765;DHT22;35657;51.204;-4.130;2023-03-30T01:32:14;11.40;99.90
49765;DHT22;35657;51.204;-4.130;2023-03-30T01:37:49;11.40;99.90
49765;DHT22;35657;51.204;-4.130;2023-03-30T01:42:57;11.50;99.90
49765;DHT22;35657;51.204;-4.130;2023-03-30T01:45:57;11.50;99.90
49765;DHT22;35657;51.204;-4.130;2023-03-30T01:48:40;11.50;99.90
49765;DHT22;35657;51.204;-4.130;2023-03-30T01:51:54;11.40;99.90
49765;DHT22;35657;51.204;-4.130;2023-03-30T01:54:04;11.40;99.90
49765;DHT22;35657;51.204;-4.130;2023-03-30T01:56:38;11.30;99.90
49765;DHT22;35657;51.204;-4.130;2023-03-30T01:59:11;11.30;99.90
49765;DHT22;35657;51.204;-4.130;2023-03-30T02:01:40;11.30;99.90
49765;DHT22;35657;51.204;-4.130;2023-03-30T02:04:09;11.30;99.90
49765;DHT22;35657;51.204;-4.130;2023-03-30T02:06:43;11.30;99.90
49765;DHT22;35657;51.204;-4.130;2023-03-30T02:09:14;11.30;99.90
49765;DHT22;35657;51.204;-4.130;2023-03-30T02:11:47;11.30;99.90
49765;DHT22;35657;51.204;-4.130;2023-03-30T02:14:15;11.20;99.90
49765;DHT22;35657;51.204;-4.130;2023-03-30T02:16:47;11.30;99.90
49765;DHT22;35657;51.204;-4.130;2023-03-30T02:19:14;11.30;99.90
49765;DHT22;35657;51.204;-4.130;2023-03-30T02:21:40;11.30;99.90
49765;DHT22;35657;51.204;-4.130;2023-03-30T02:24:12;11.30;99.90
49765;DHT22;35657;51.204;-4.130;2023-03-30T02:26:45;11.20;99.90
49765;DHT22;35657;51.204;-4.130;2023-03-30T02:29:12;11.20;99.90
49765;DHT22;35657;51.204;-4.130;2023-03-30T02:31:38;11.20;99.90
49765;DHT22;35657;51.204;-4.130;2023-03-30T02:42:35;11.20;99.90
49765;DHT22;35657;51.204;-4.130;2023-03-30T02:47:48;11.20;99.90
49765;DHT22;35657;51.204;-4.130;2023-03-30T03:01:27;11.20;99.90
49765;DHT22;35657;51.204;-4.130;2023-03-30T03:03:50;11.30;99.90
49765;DHT22;35657;51.204;-4.130;2023-03-30T03:06:16;11.40;99.90
49765;DHT22;35657;51.204;-4.130;2023-03-30T03:08:45;11.40;99.90
49765;DHT22;35657;51.204;-4.130;2023-03-30T03:11:14;11.40;99.90
49765;DHT22;35657;51.204;-4.130;2023-03-30T03:13:40;11.40;99.90
49765;DHT22;35657;51.204;-4.130;2023-03-30T03:16:08;11.40;99.90
49765;DHT22;35657;51.204;-4.130;2023-03-30T03:18:38;11.40;99.90
49765;DHT22;35657;51.204;-4.130;2023-03-30T03:21:05;11.50;99.90
49765;DHT22;35657;51.204;-4.130;2023-03-30T03:23:32;11.40;99.90
49765;DHT22;35657;51.204;-4.130;2023-03-30T03:25:57;11.40;99.90
49765;DHT22;35657;51.204;-4.130;2023-03-30T03:28:25;11.30;99.90
49765;DHT22;35657;51.204;-4.130;2023-03-30T03:30:51;11.30;99.90
49765;DHT22;35657;51.204;-4.130;2023-03-30T03:33:16;11.30;99.90
49765;DHT22;35657;51.204;-4.130;2023-03-30T03:35:44;11.30;99.90
49765;DHT22;35657;51.204;-4.130;2023-03-30T03:38:11;11.30;99.90
49765;DHT22;35657;51.204;-4.130;2023-03-30T03:40:37;11.30;99.90
49765;DHT22;35657;51.204;-4.130;2023-03-30T03:43:02;11.20;99.90
49765;DHT22;35657;51.204;-4.130;2023-03-30T03:45:28;11.30;99.90
49765;DHT22;35657;51.204;-4.130;2023-03-30T03:47:54;11.20;99.90
49765;DHT22;35657;51.204;-4.130;2023-03-30T03:50:20;11.20;99.90
49765;DHT22;35657;51.204;-4.130;2023-03-30T03:52:46;11.20;99.90
49765;DHT22;35657;51.204;-4.130;2023-03-30T03:55:12;11.20;99.90
49765;DHT22;35657;51.204;-4.130;2023-03-30T03:57:38;11.20;99.90
49765;DHT22;35657;51.204;-4.130;2023-03-30T04:00:05;11.20;99.90
49765;DHT22;35657;51.204;-4.130;2023-03-30T04:02:42;11.20;99.90
49765;DHT22;35657;51.204;-4.130;2023-03-30T04:05:08;11.20;99.90
49765;DHT22;35657;51.204;-4.130;2023-03-30T04:07:34;11.20;99.90
49765;DHT22;35657;51.204;-4.130;2023-03-30T04:10:04;11.20;99.90
49765;DHT22;35657;51.204;-4.130;2023-03-30T04:12:30;11.20;99.90
49765;DHT22;35657;51.204;-4.130;2023-03-30T04:14:56;11.20;99.90
49765;DHT22;35657;51.204;-4.130;2023-03-30T04:17:22;11.20;99.90
49765;DHT22;35657;51.204;-4.130;2023-03-30T04:19:49;11.20;99.90
49765;DHT22;35657;51.204;-4.130;2023-03-30T04:22:23;11.20;99.90
49765;DHT22;35657;51.204;-4.130;2023-03-30T04:24:51;11.20;99.90
49765;DHT22;35657;51.204;-4.130;2023-03-30T04:27:17;11.30;99.90
49765;DHT22;35657;51.204;-4.130;2023-03-30T04:29:43;11.20;99.90
49765;DHT22;35657;51.204;-4.130;2023-03-30T04:32:12;11.20;99.90
49765;DHT22;35657;51.204;-4.130;2023-03-30T04:34:45;11.30;99.90
49765;DHT22;35657;51.204;-4.130;2023-03-30T04:37:11;11.30;99.90
49765;DHT22;35657;51.204;-4.130;2023-03-30T04:39:43;11.40;99.90
49765;DHT22;35657;51.204;-4.130;2023-03-30T04:42:09;11.40;99.90
49765;DHT22;35657;51.204;-4.130;2023-03-30T04:44:41;11.40;99.90
49765;DHT22;35657;51.204;-4.130;2023-03-30T04:47:07;11.40;99.90
49765;DHT22;35657;51.204;-4.130;2023-03-30T04:49:33;11.50;99.90
49765;DHT22;35657;51.204;-4.130;2023-03-30T04:51:58;11.40;99.90
49765;DHT22;35657;51.204;-4.130;2023-03-30T04:54:24;11.40;99.90
49765;DHT22;35657;51.204;-4.130;2023-03-30T04:56:50;11.50;99.90
49765;DHT22;35657;51.204;-4.130;2023-03-30T04:59:15;11.50;99.90
49765;DHT22;35657;51.204;-4.130;2023-03-30T05:01:41;11.40;99.90
49765;DHT22;35657;51.204;-4.130;2023-03-30T05:04:07;11.40;99.90
49765;DHT22;35657;51.204;-4.130;2023-03-30T05:06:34;11.40;99.90
49765;DHT22;35657;51.204;-4.130;2023-03-30T05:09:00;11.30;99.90
49765;DHT22;35657;51.204;-4.130;2023-03-30T05:11:25;11.30;99.90
49765;DHT22;35657;51.204;-4.130;2023-03-30T05:13:52;11.30;99.90
49765;DHT22;35657;51.204;-4.130;2023-03-30T05:16:19;11.30;99.90
49765;DHT22;35657;51.204;-4.130;2023-03-30T05:18:44;11.30;99.90
49765;DHT22;35657;51.204;-4.130;2023-03-30T05:21:10;11.30;99.90
49765;DHT22;35657;51.204;-4.130;2023-03-30T05:23:36;11.30;99.90
49765;DHT22;35657;51.204;-4.130;2023-03-30T05:26:04;11.30;99.90
49765;DHT22;35657;51.204;-4.130;2023-03-30T05:28:32;11.30;99.90
49765;DHT22;35657;51.204;-4.130;2023-03-30T05:30:58;11.30;99.90
49765;DHT22;35657;51.204;-4.130;2023-03-30T05:33:24;11.30;99.90
49765;DHT22;35657;51.204;-4.130;2023-03-30T05:35:50;11.30;99.90
49765;DHT22;35657;51.204;-4.130;2023-03-30T05:38:16;11.30;99.90
49765;DHT22;35657;51.204;-4.130;2023-03-30T05:40:42;11.30;99.90
49765;DHT22;35657;51.204;-4.130;2023-03-30T05:43:09;11.30;99.90
49765;DHT22;35657;51.204;-4.130;2023-03-30T05:45:35;11.30;99.90
49765;DHT22;35657;51.204;-4.130;2023-03-30T05:48:01;11.30;99.90
49765;DHT22;35657;51.204;-4.130;2023-03-30T05:50:27;11.30;99.90
49765;DHT22;35657;51.204;-4.130;2023-03-30T05:52:52;11.30;99.90
49765;DHT22;35657;51.204;-4.130;2023-03-30T05:55:18;11.30;99.90
49765;DHT22;35657;51.204;-4.130;2023-03-30T05:57:44;11.30;99.90
49765;DHT22;35657;51.204;-4.130;2023-03-30T06:00:11;11.30;99.90
49765;DHT22;35657;51.204;-4.130;2023-03-30T06:02:38;11.30;99.90
49765;DHT22;35657;51.204;-4.130;2023-03-30T06:05:04;11.30;99.90
49765;DHT22;35657;51.204;-4.130;2023-03-30T06:07:30;11.30;99.90
49765;DHT22;35657;51.204;-4.130;2023-03-30T06:09:56;11.40;99.90
49765;DHT22;35657;51.204;-4.130;2023-03-30T06:12:24;11.40;99.90
49765;DHT22;35657;51.204;-4.130;2023-03-30T06:14:50;11.40;99.90
49765;DHT22;35657;51.204;-4.130;2023-03-30T06:17:16;11.40;99.90
49765;DHT22;35657;51.204;-4.130;2023-03-30T06:19:42;11.40;99.90
49765;DHT22;35657;51.204;-4.130;2023-03-30T06:22:08;11.40;99.90
49765;DHT22;35657;51.204;-4.130;2023-03-30T06:24:34;11.40;99.90
49765;DHT22;35657;51.204;-4.130;2023-03-30T06:27:00;11.40;99.90
49765;DHT22;35657;51.204;-4.130;2023-03-30T06:29:27;11.40;99.90
49765;DHT22;35657;51.204;-4.130;2023-03-30T06:31:53;11.40;99.90
49765;DHT22;35657;51.204;-4.130;2023-03-30T06:34:19;11.40;99.90
49765;DHT22;35657;51.204;-4.130;2023-03-30T06:36:45;11.40;99.90
49765;DHT22;35657;51.204;-4.130;2023-03-30T06:39:12;11.40;99.90
49765;DHT22;35657;51.204;-4.130;2023-03-30T06:41:38;11.40;99.90
49765;DHT22;35657;51.204;-4.130;2023-03-30T06:44:04;11.30;99.90
49765;DHT22;35657;51.204;-4.130;2023-03-30T06:46:29;11.30;99.90
49765;DHT22;35657;51.204;-4.130;2023-03-30T06:48:55;11.30;99.90
49765;DHT22;35657;51.204;-4.130;2023-03-30T06:51:21;11.30;99.90
49765;DHT22;35657;51.204;-4.130;2023-03-30T06:53:46;11.30;99.90
49765;DHT22;35657;51.204;-4.130;2023-03-30T06:56:12;11.30;99.90
49765;DHT22;35657;51.204;-4.130;2023-03-30T06:58:38;11.30;99.90
49765;DHT22;35657;51.204;-4.130;2023-03-30T07:01:13;11.30;99.90
49765;DHT22;35657;51.204;-4.130;2023-03-30T07:03:40;11.30;99.90
49765;DHT22;35657;51.204;-4.130;2023-03-30T07:06:07;11.30;99.90
49765;DHT22;35657;51.204;-4.130;2023-03-30T07:08:33;11.30;99.90
49765;DHT22;35657;51.204;-4.130;2023-03-30T07:11:00;11.30;99.90
49765;DHT22;35657;51.204;-4.130;2023-03-30T07:13:26;11.40;99.90
49765;DHT22;35657;51.204;-4.130;2023-03-30T07:15:52;11.30;99.90
49765;DHT22;35657;51.204;-4.130;2023-03-30T07:18:18;11.30;99.90
49765;DHT22;35657;51.204;-4.130;2023-03-30T07:20:45;11.40;99.90
49765;DHT22;35657;51.204;-4.130;2023-03-30T07:23:11;11.40;99.90
49765;DHT22;35657;51.204;-4.130;2023-03-30T07:25:38;11.40;99.90
49765;DHT22;35657;51.204;-4.130;2023-03-30T07:28:04;11.40;99.90
49765;DHT22;35657;51.204;-4.130;2023-03-30T07:30:34;11.40;99.90
49765;DHT22;35657;51.204;-4.130;2023-03-30T07:33:00;11.40;99.90
49765;DHT22;35657;51.204;-4.130;2023-03-30T07:35:26;11.40;99.90
49765;DHT22;35657;51.204;-4.130;2023-03-30T07:37:52;11.40;99.90
49765;DHT22;35657;51.204;-4.130;2023-03-30T07:40:18;11.40;99.90
49765;DHT22;35657;51.204;-4.130;2023-03-30T07:42:45;11.40;99.90
49765;DHT22;35657;51.204;-4.130;2023-03-30T07:45:12;11.50;99.90
49765;DHT22;35657;51.204;-4.130;2023-03-30T07:47:39;11.50;99.90
49765;DHT22;35657;51.204;-4.130;2023-03-30T07:50:05;11.50;99.90
49765;DHT22;35657;51.204;-4.130;2023-03-30T07:52:31;11.60;99.90
49765;DHT22;35657;51.204;-4.130;2023-03-30T07:54:57;11.60;99.90
49765;DHT22;35657;51.204;-4.130;2023-03-30T07:57:24;11.60;99.90
49765;DHT22;35657;51.204;-4.130;2023-03-30T07:59:50;11.60;99.90
49765;DHT22;35657;51.204;-4.130;2023-03-30T08:02:16;11.60;99.90
49765;DHT22;35657;51.204;-4.130;2023-03-30T08:04:43;11.70;99.90
49765;DHT22;35657;51.204;-4.130;2023-03-30T08:07:10;11.70;99.90
49765;DHT22;35657;51.204;-4.130;2023-03-30T08:09:36;11.80;99.90
49765;DHT22;35657;51.204;-4.130;2023-03-30T08:12:02;11.70;99.90
49765;DHT22;35657;51.204;-4.130;2023-03-30T08:14:28;11.70;99.90
49765;DHT22;35657;51.204;-4.130;2023-03-30T08:16:54;11.70;99.90
49765;DHT22;35657;51.204;-4.130;2023-03-30T08:19:23;11.70;99.90
49765;DHT22;35657;51.204;-4.130;2023-03-30T08:21:49;11.70;99.90
49765;DHT22;35657;51.204;-4.130;2023-03-30T08:24:15;11.70;99.90
49765;DHT22;35657;51.204;-4.130;2023-03-30T08:26:41;11.70;99.90
49765;DHT22;35657;51.204;-4.130;2023-03-30T08:29:08;11.70;99.90
49765;DHT22;35657;51.204;-4.130;2023-03-30T08:31:34;11.70;99.90
49765;DHT22;35657;51.204;-4.130;2023-03-30T08:34:02;11.70;99.90
49765;DHT22;35657;51.204;-4.130;2023-03-30T08:36:29;11.70;99.90
49765;DHT22;35657;51.204;-4.130;2023-03-30T08:38:55;11.70;99.90
49765;DHT22;35657;51.204;-4.130;2023-03-30T08:43:57;11.80;99.90
49765;DHT22;35657;51.204;-4.130;2023-03-30T08:46:24;11.80;99.90
49765;DHT22;35657;51.204;-4.130;2023-03-30T08:48:51;11.80;99.90
49765;DHT22;35657;51.204;-4.130;2023-03-30T08:51:22;11.90;99.90
49765;DHT22;35657;51.204;-4.130;2023-03-30T08:54:04;11.90;99.90
49765;DHT22;35657;51.204;-4.130;2023-03-30T08:56:38;11.90;99.90
49765;DHT22;35657;51.204;-4.130;2023-03-30T09:01:57;12.00;99.90
49765;DHT22;35657;51.204;-4.130;2023-03-30T09:07:13;12.10;99.90
49765;DHT22;35657;51.204;-4.130;2023-03-30T09:09:44;12.10;99.90
49765;DHT22;35657;51.204;-4.130;2023-03-30T09:12:40;12.20;99.90
49765;DHT22;35657;51.204;-4.130;2023-03-30T09:17:46;12.40;99.90
49765;DHT22;35657;51.204;-4.130;2023-03-30T09:20:14;12.50;99.90
49765;DHT22;35657;51.204;-4.130;2023-03-30T09:22:43;12.50;99.90
49765;DHT22;35657;51.204;-4.130;2023-03-30T09:30:55;12.70;99.90
49765;DHT22;35657;51.204;-4.130;2023-03-30T09:36:22;13.10;99.90
49765;DHT22;35657;51.204;-4.130;2023-03-30T09:38:50;13.00;99.90
49765;DHT22;35657;51.204;-4.130;2023-03-30T09:44:29;13.20;99.90
49765;DHT22;35657;51.204;-4.130;2023-03-30T09:46:58;13.20;99.90
49765;DHT22;35657;51.204;-4.130;2023-03-30T09:49:28;13.20;99.90
49765;DHT22;35657;51.204;-4.130;2023-03-30T09:52:05;13.30;99.90
49765;DHT22;35657;51.204;-4.130;2023-03-30T09:54:36;13.20;99.90
49765;DHT22;35657;51.204;-4.130;2023-03-30T09:57:03;13.20;99.90
49765;DHT22;35657;51.204;-4.130;2023-03-30T09:59:34;13.40;99.90
49765;DHT22;35657;51.204;-4.130;2023-03-30T10:09:50;13.70;99.90
49765;DHT22;35657;51.204;-4.130;2023-03-30T10:12:16;13.80;99.90
49765;DHT22;35657;51.204;-4.130;2023-03-30T10:14:43;13.90;99.90
49765;DHT22;35657;51.204;-4.130;2023-03-30T10:17:18;14.00;99.90
49765;DHT22;35657;51.204;-4.130;2023-03-30T10:19:45;14.00;99.90
49765;DHT22;35657;51.204;-4.130;2023-03-30T10:22:19;14.10;99.90
49765;DHT22;35657;51.204;-4.130;2023-03-30T10:24:53;13.90;99.90
49765;DHT22;35657;51.204;-4.130;2023-03-30T10:27:25;14.10;99.90
49765;DHT22;35657;51.204;-4.130;2023-03-30T10:29:53;14.20;99.90
49765;DHT22;35657;51.204;-4.130;2023-03-30T10:32:20;14.30;99.90
49765;DHT22;35657;51.204;-4.130;2023-03-30T10:34:52;14.50;99.90
49765;DHT22;35657;51.204;-4.130;2023-03-30T10:37:38;14.50;99.90
49765;DHT22;35657;51.204;-4.130;2023-03-30T10:40:16;14.60;99.90
49765;DHT22;35657;51.204;-4.130;2023-03-30T10:42:43;14.40;99.90
49765;DHT22;35657;51.204;-4.130;2023-03-30T10:54:01;14.80;99.90
49765;DHT22;35657;51.204;-4.130;2023-03-30T10:57:38;14.90;99.90
49765;DHT22;35657;51.204;-4.130;2023-03-30T11:02:25;14.70;99.90
49765;DHT22;35657;51.204;-4.130;2023-03-30T11:05:21;14.80;99.90
49765;DHT22;35657;51.204;-4.130;2023-03-30T11:10:29;15.00;99.90
49765;DHT22;35657;51.204;-4.130;2023-03-30T11:15:50;15.10;99.90
49765;DHT22;35657;51.204;-4.130;2023-03-30T11:18:40;15.20;99.90
49765;DHT22;35657;51.204;-4.130;2023-03-30T11:23:51;15.00;99.90
49765;DHT22;35657;51.204;-4.130;2023-03-30T11:37:17;15.30;99.90
49765;DHT22;35657;51.204;-4.130;2023-03-30T11:39:54;15.20;99.90
49765;DHT22;35657;51.204;-4.130;2023-03-30T11:42:28;15.20;99.90
49765;DHT22;35657;51.204;-4.130;2023-03-30T11:44:54;15.20;99.90
49765;DHT22;35657;51.204;-4.130;2023-03-30T11:55:19;15.20;99.90
49765;DHT22;35657;51.204;-4.130;2023-03-30T12:00:41;15.30;99.90
49765;DHT22;35657;51.204;-4.130;2023-03-30T12:03:40;15.20;99.90
49765;DHT22;35657;51.204;-4.130;2023-03-30T12:11:54;15.10;99.90
49765;DHT22;35657;51.204;-4.130;2023-03-30T12:25:46;14.80;99.90
49765;DHT22;35657;51.204;-4.130;2023-03-30T12:28:16;14.70;99.90
49765;DHT22;35657;51.204;-4.130;2023-03-30T12:30:52;14.90;99.90
49765;DHT22;35657;51.204;-4.130;2023-03-30T12:33:43;14.80;99.90
49765;DHT22;35657;51.204;-4.130;2023-03-30T12:36:35;14.70;99.90
49765;DHT22;35657;51.204;-4.130;2023-03-30T12:39:09;14.50;99.90
49765;DHT22;35657;51.204;-4.130;2023-03-30T12:41:44;14.60;99.90
49765;DHT22;35657;51.204;-4.130;2023-03-30T12:44:53;14.60;99.90
49765;DHT22;35657;51.204;-4.130;2023-03-30T13:04:00;14.30;99.90
49765;DHT22;35657;51.204;-4.130;2023-03-30T13:06:50;14.40;99.90
49765;DHT22;35657;51.204;-4.130;2023-03-30T13:29:40;14.60;99.90
49765;DHT22;35657;51.204;-4.130;2023-03-30T13:34:50;14.80;99.90
49765;DHT22;35657;51.204;-4.130;2023-03-30T13:47:01;14.70;99.90
49765;DHT22;35657;51.204;-4.130;2023-03-30T13:52:31;14.80;99.90
49765;DHT22;35657;51.204;-4.130;2023-03-30T13:54:58;14.80;99.90
49765;DHT22;35657;51.204;-4.130;2023-03-30T13:57:35;14.90;99.90
49765;DHT22;35657;51.204;-4.130;2023-03-30T14:00:21;14.90;99.90
49765;DHT22;35657;51.204;-4.130;2023-03-30T14:02:49;14.90;99.90
49765;DHT22;35657;51.204;-4.130;2023-03-30T14:05:24;15.00;99.90
49765;DHT22;35657;51.204;-4.130;2023-03-30T14:07:57;14.70;99.90
49765;DHT22;35657;51.204;-4.130;2023-03-30T14:10:24;14.80;99.90
49765;DHT22;35657;51.204;-4.130;2023-03-30T14:12:53;15.00;99.90
49765;DHT22;35657;51.204;-4.130;2023-03-30T14:15:31;14.90;99.90
49765;DHT22;35657;51.204;-4.130;2023-03-30T14:17:59;15.00;99.90
49765;DHT22;35657;51.204;-4.130;2023-03-30T14:25:51;14.80;99.90
49765;DHT22;35657;51.204;-4.130;2023-03-30T14:28:19;14.70;99.90
49765;DHT22;35657;51.204;-4.130;2023-03-30T14:30:56;14.60;99.90
49765;DHT22;35657;51.204;-4.130;2023-03-30T14:33:23;14.50;99.90
49765;DHT22;35657;51.204;-4.130;2023-03-30T14:35:59;14.60;99.90
49765;DHT22;35657;51.204;-4.130;2023-03-30T14:38:31;14.60;99.90
49765;DHT22;35657;51.204;-4.130;2023-03-30T14:41:25;14.70;99.90
49765;DHT22;35657;51.204;-4.130;2023-03-30T14:44:03;14.70;99.90
49765;DHT22;35657;51.204;-4.130;2023-03-30T14:46:42;14.70;99.90
49765;DHT22;35657;51.204;-4.130;2023-03-30T14:49:27;14.70;99.90
49765;DHT22;35657;51.204;-4.130;2023-03-30T14:52:24;14.70;99.90
49765;DHT22;35657;51.204;-4.130;2023-03-30T14:54:52;14.70;99.90
49765;DHT22;35657;51.204;-4.130;2023-03-30T14:57:21;14.70;99.90
49765;DHT22;35657;51.204;-4.130;2023-03-30T14:59:54;14.70;99.90
49765;DHT22;35657;51.204;-4.130;2023-03-30T15:02:27;14.80;99.90
49765;DHT22;35657;51.204;-4.130;2023-03-30T15:04:55;14.80;99.90
49765;DHT22;35657;51.204;-4.130;2023-03-30T15:07:21;14.70;99.90
49765;DHT22;35657;51.204;-4.130;2023-03-30T15:09:53;14.70;99.90
49765;DHT22;35657;51.204;-4.130;2023-03-30T15:12:27;14.70;99.90
49765;DHT22;35657;51.204;-4.130;2023-03-30T15:14:56;14.80;99.90
49765;DHT22;35657;51.204;-4.130;2023-03-30T15:17:25;14.90;99.90
49765;DHT22;35657;51.204;-4.130;2023-03-30T15:19:53;14.90;99.90
49765;DHT22;35657;51.204;-4.130;2023-03-30T15:24:49;14.80;99.90
49765;DHT22;35657;51.204;-4.130;2023-03-30T15:27:15;14.90;99.90
49765;DHT22;35657;51.204;-4.130;2023-03-30T15:29:42;14.80;99.90
49765;DHT22;35657;51.204;-4.130;2023-03-30T15:34:35;14.70;99.90
49765;DHT22;35657;51.204;-4.130;2023-03-30T15:37:01;14.60;99.90
49765;DHT22;35657;51.204;-4.130;2023-03-30T15:39:29;14.40;99.90
49765;DHT22;35657;51.204;-4.130;2023-03-30T15:42:06;14.20;99.90
49765;DHT22;35657;51.204;-4.130;2023-03-30T15:44:34;14.00;99.90
49765;DHT22;35657;51.204;-4.130;2023-03-30T15:47:00;13.90;99.90
49765;DHT22;35657;51.204;-4.130;2023-03-30T15:49:41;13.80;99.90
49765;DHT22;35657;51.204;-4.130;2023-03-30T15:54:48;13.60;99.90
49765;DHT22;35657;51.204;-4.130;2023-03-30T15:57:27;13.60;99.90
49765;DHT22;35657;51.204;-4.130;2023-03-30T15:59:59;13.60;99.90
49765;DHT22;35657;51.204;-4.130;2023-03-30T16:02:38;13.50;99.90
49765;DHT22;35657;51.204;-4.130;2023-03-30T16:05:07;13.50;99.90
49765;DHT22;35657;51.204;-4.130;2023-03-30T16:07:39;13.40;99.90
49765;DHT22;35657;51.204;-4.130;2023-03-30T16:10:17;13.40;99.90
49765;DHT22;35657;51.204;-4.130;2023-03-30T16:12:47;13.40;99.90
49765;DHT22;35657;51.204;-4.130;2023-03-30T16:15:25;13.40;99.90
49765;DHT22;35657;51.204;-4.130;2023-03-30T16:17:51;13.40;99.90
49765;DHT22;35657;51.204;-4.130;2023-03-30T16:20:25;13.40;99.90
49765;DHT22;35657;51.204;-4.130;2023-03-30T16:22:51;13.40;99.90
49765;DHT22;35657;51.204;-4.130;2023-03-30T16:25:20;13.40;99.90
49765;DHT22;35657;51.204;-4.130;2023-03-30T16:27:46;13.40;99.90
49765;DHT22;35657;51.204;-4.130;2023-03-30T16:32:42;13.30;99.90
49765;DHT22;35657;51.204;-4.130;2023-03-30T16:35:08;13.30;99.90
49765;DHT22;35657;51.204;-4.130;2023-03-30T16:37:34;13.30;99.90
49765;DHT22;35657;51.204;-4.130;2023-03-30T16:40:00;13.30;99.90
49765;DHT22;35657;51.204;-4.130;2023-03-30T16:42:26;13.30;99.90
49765;DHT22;35657;51.204;-4.130;2023-03-30T16:44:52;13.30;99.90
49765;DHT22;35657;51.204;-4.130;2023-03-30T16:47:18;13.30;99.90
49765;DHT22;35657;51.204;-4.130;2023-03-30T16:49:47;13.30;99.90
49765;DHT22;35657;51.204;-4.130;2023-03-30T16:52:13;13.30;99.90
49765;DHT22;35657;51.204;-4.130;2023-03-30T16:54:39;13.30;99.90
49765;DHT22;35657;51.204;-4.130;2023-03-30T16:57:04;13.20;99.90
49765;DHT22;35657;51.204;-4.130;2023-03-30T16:59:31;13.20;99.90
49765;DHT22;35657;51.204;-4.130;2023-03-30T17:01:58;13.10;99.90
49765;DHT22;35657;51.204;-4.130;2023-03-30T17:04:24;13.10;99.90
49765;DHT22;35657;51.204;-4.130;2023-03-30T17:06:50;13.10;99.90
49765;DHT22;35657;51.204;-4.130;2023-03-30T17:09:18;13.10;99.90
49765;DHT22;35657;51.204;-4.130;2023-03-30T17:11:47;13.10;99.90
49765;DHT22;35657;51.204;-4.130;2023-03-30T17:14:13;13.00;99.90
49765;DHT22;35657;51.204;-4.130;2023-03-30T17:16:40;13.00;99.90
49765;DHT22;35657;51.204;-4.130;2023-03-30T17:19:09;13.00;99.90
49765;DHT22;35657;51.204;-4.130;2023-03-30T17:21:36;13.00;99.90
49765;DHT22;35657;51.204;-4.130;2023-03-30T17:24:01;13.00;99.90
49765;DHT22;35657;51.204;-4.130;2023-03-30T17:26:27;13.00;99.90
49765;DHT22;35657;51.204;-4.130;2023-03-30T17:28:53;13.00;99.90
49765;DHT22;35657;51.204;-4.130;2023-03-30T17:31:20;13.00;99.90
49765;DHT22;35657;51.204;-4.130;2023-03-30T17:33:47;12.90;99.90
49765;DHT22;35657;51.204;-4.130;2023-03-30T17:36:17;12.90;99.90
49765;DHT22;35657;51.204;-4.130;2023-03-30T17:38:43;12.90;99.90
49765;DHT22;35657;51.204;-4.130;2023-03-30T17:41:11;12.90;99.90
49765;DHT22;35657;51.204;-4.130;2023-03-30T17:43:38;12.90;99.90
49765;DHT22;35657;51.204;-4.130;2023-03-30T17:46:04;12.90;99.90
49765;DHT22;35657;51.204;-4.130;2023-03-30T17:48:30;12.80;99.90
49765;DHT22;35657;51.204;-4.130;2023-03-30T17:50:56;12.80;99.90
49765;DHT22;35657;51.204;-4.130;2023-03-30T17:53:21;12.80;99.90
49765;DHT22;35657;51.204;-4.130;2023-03-30T17:55:49;12.80;99.90
49765;DHT22;35657;51.204;-4.130;2023-03-30T17:58:28;12.80;99.90
49765;DHT22;35657;51.204;-4.130;2023-03-30T18:00:57;12.80;99.90
49765;DHT22;35657;51.204;-4.130;2023-03-30T18:03:23;12.70;99.90
49765;DHT22;35657;51.204;-4.130;2023-03-30T18:05:54;12.70;99.90
49765;DHT22;35657;51.204;-4.130;2023-03-30T18:08:21;12.70;99.90
49765;DHT22;35657;51.204;-4.130;2023-03-30T18:10:58;12.70;99.90
49765;DHT22;35657;51.204;-4.130;2023-03-30T18:13:24;12.60;99.90
49765;DHT22;35657;51.204;-4.130;2023-03-30T18:15:53;12.60;99.90
49765;DHT22;35657;51.204;-4.130;2023-03-30T18:18:21;12.60;99.90
49765;DHT22;35657;51.204;-4.130;2023-03-30T18:20:52;12.60;99.90
49765;DHT22;35657;51.204;-4.130;2023-03-30T18:23:19;12.60;99.90
49765;DHT22;35657;51.204;-4.130;2023-03-30T18:25:44;12.60;99.90
49765;DHT22;35657;51.204;-4.130;2023-03-30T18:28:22;12.50;99.90
49765;DHT22;35657;51.204;-4.130;2023-03-30T18:30:48;12.60;99.90
49765;DHT22;35657;51.204;-4.130;2023-03-30T18:33:15;12.50;99.90
49765;DHT22;35657;51.204;-4.130;2023-03-30T18:35:42;12.50;99.90
49765;DHT22;35657;51.204;-4.130;2023-03-30T18:38:10;12.40;99.90
49765;DHT22;35657;51.204;-4.130;2023-03-30T18:40:39;12.40;99.90
49765;DHT22;35657;51.204;-4.130;2023-03-30T18:43:06;12.30;99.90